Inda, Mississippi
Current Conditions -  °F | °C
As of 5:53 PM on Wednesday 22 Oct 2014 (Local Time) from KGPT Reporting Station
Clear Clear  
Wind Chill: 75°   Ceiling: Unl
Heat Index: 75°   Visibility: 10mi
Dew Point: 51°   Wind: 7mph
Humidity: 43%   Direction: 30°NNE
Pressure: 30.02"   Gusts: NA
Location:  30.7239°N, 89.1669°W
Report Text: KGPT 222253Z 03006KT 10SM CLR 24/11 A3002 RMK AO2 SLP165 T02390106
Loading
Personal Weather Stations






























Interactive Weather Map
Tropical Storm Tracking
New forecast layout! Learn more

10-Day Weather Forecast

Advertisements
Track Severe Weather on mobile